createdAt,value
2023-05-05T00:00:28.590Z,11.98
2023-05-05T00:01:28.585Z,11.98
2023-05-05T00:02:28.634Z,11.98
2023-05-05T00:03:28.656Z,11.96
2023-05-05T00:04:28.600Z,11.87
2023-05-05T00:05:28.538Z,12.00
2023-05-05T00:06:28.530Z,11.98
2023-05-05T00:07:28.573Z,11.88
2023-05-05T00:08:28.525Z,11.85
2023-05-05T00:09:28.521Z,11.88
2023-05-05T00:10:28.551Z,11.79
2023-05-05T00:11:28.533Z,11.77
2023-05-05T00:12:28.488Z,11.60
2023-05-05T00:13:28.478Z,11.64
2023-05-05T00:14:28.513Z,11.57
2023-05-05T00:15:28.436Z,11.41
2023-05-05T00:16:28.469Z,11.24
2023-05-05T00:17:28.441Z,11.20
2023-05-05T00:18:28.442Z,11.27
2023-05-05T00:19:28.435Z,11.38
2023-05-05T00:20:28.407Z,11.31
2023-05-05T00:21:28.390Z,11.26
2023-05-05T00:22:28.411Z,11.36
2023-05-05T00:23:28.407Z,11.38
2023-05-05T00:24:28.342Z,11.45
2023-05-05T00:25:28.374Z,11.38
2023-05-05T00:26:28.397Z,11.44
2023-05-05T00:27:28.408Z,11.35
2023-05-05T00:28:28.340Z,11.33
2023-05-05T00:29:28.343Z,11.42
2023-05-05T00:30:28.325Z,11.39
2023-05-05T00:31:28.339Z,11.33
2023-05-05T00:32:28.427Z,11.26
2023-05-05T00:33:28.295Z,11.31
2023-05-05T00:34:28.269Z,11.41
2023-05-05T00:35:28.266Z,11.35
2023-05-05T00:36:28.211Z,11.30
2023-05-05T00:37:28.222Z,11.41
2023-05-05T00:38:28.211Z,11.31
2023-05-05T00:39:28.233Z,11.21
2023-05-05T00:40:28.220Z,10.88
2023-05-05T00:41:28.189Z,10.70
2023-05-05T00:42:28.183Z,10.80
2023-05-05T00:43:29.174Z,10.86
2023-05-05T00:44:28.145Z,10.94
2023-05-05T00:45:28.202Z,10.90
2023-05-05T00:46:28.246Z,10.83
2023-05-05T00:47:28.176Z,10.95
2023-05-05T00:48:28.102Z,11.02
2023-05-05T00:49:28.151Z,10.86
2023-05-05T00:50:29.114Z,10.62
2023-05-05T00:51:28.107Z,10.47
2023-05-05T00:52:28.078Z,10.52
2023-05-05T00:53:28.059Z,10.47
2023-05-05T00:54:28.019Z,10.63
2023-05-05T00:55:28.044Z,10.65
2023-05-05T00:56:28.076Z,10.69
2023-05-05T00:57:29.026Z,10.57
2023-05-05T00:58:28.053Z,10.66
2023-05-05T00:59:28.004Z,10.76
2023-05-05T01:00:28.044Z,10.88
2023-05-05T01:01:28.028Z,10.95
2023-05-05T01:02:28.050Z,11.09
2023-05-05T01:03:28.015Z,11.11
2023-05-05T01:04:28.006Z,11.08
2023-05-05T01:05:27.990Z,10.99
2023-05-05T01:06:27.925Z,10.62
2023-05-05T01:07:27.951Z,10.35
2023-05-05T01:08:27.890Z,10.34
2023-05-05T01:09:27.872Z,10.18
2023-05-05T01:10:27.911Z,9.91
2023-05-05T01:11:27.905Z,9.59
2023-05-05T01:12:27.855Z,9.53
2023-05-05T01:13:27.860Z,9.71
2023-05-05T01:14:27.837Z,9.78
2023-05-05T01:15:27.840Z,9.96
2023-05-05T01:16:27.832Z,10.13
2023-05-05T01:17:27.836Z,10.29
2023-05-05T01:18:27.793Z,10.46
2023-05-05T01:19:27.793Z,10.49
2023-05-05T01:20:27.786Z,10.58
2023-05-05T01:21:27.788Z,10.66
2023-05-05T01:22:27.772Z,10.68
2023-05-05T01:23:27.733Z,10.91
2023-05-05T01:24:27.735Z,10.84
2023-05-05T01:25:27.702Z,10.69
2023-05-05T01:26:27.709Z,10.65
2023-05-05T01:27:27.744Z,10.38
2023-05-05T01:28:27.697Z,10.42
2023-05-05T01:29:27.687Z,10.28
2023-05-05T01:30:27.673Z,10.24
2023-05-05T01:31:27.661Z,10.25
2023-05-05T01:32:27.695Z,10.43
2023-05-05T01:33:28.030Z,10.42
2023-05-05T01:34:27.619Z,10.34
2023-05-05T01:35:27.671Z,10.25
2023-05-05T01:36:27.619Z,10.34
2023-05-05T01:37:27.602Z,10.25
2023-05-05T01:38:27.601Z,10.18
2023-05-05T01:39:27.746Z,10.25
2023-05-05T01:40:27.561Z,10.22
2023-05-05T01:41:27.529Z,10.07
2023-05-05T01:42:27.534Z,10.16
2023-05-05T01:43:27.567Z,10.06
2023-05-05T01:44:27.532Z,9.86
2023-05-05T01:45:27.587Z,10.02
2023-05-05T01:46:27.478Z,10.22
2023-05-05T01:47:27.512Z,10.28
2023-05-05T01:48:27.468Z,10.36
2023-05-05T01:49:27.456Z,10.38
2023-05-05T01:50:27.483Z,10.32
2023-05-05T01:51:27.416Z,10.20
2023-05-05T01:52:27.415Z,10.02
2023-05-05T01:53:28.085Z,10.16
2023-05-05T01:54:27.384Z,10.25
2023-05-05T01:55:27.701Z,10.36
2023-05-05T01:56:27.404Z,10.46
2023-05-05T01:57:27.389Z,10.47
2023-05-05T01:58:27.395Z,10.66
2023-05-05T01:59:27.336Z,10.63
2023-05-05T02:00:27.383Z,10.69
2023-05-05T02:01:27.393Z,10.75
2023-05-05T02:02:27.410Z,10.76
2023-05-05T02:03:27.319Z,10.73
2023-05-05T02:04:27.276Z,10.52
2023-05-05T02:05:27.285Z,10.34
2023-05-05T02:06:27.265Z,10.14
2023-05-05T02:07:27.285Z,10.13
2023-05-05T02:08:27.266Z,10.04
2023-05-05T02:09:27.254Z,10.22
2023-05-05T02:10:27.363Z,10.28
2023-05-05T02:11:27.230Z,10.39
2023-05-05T02:12:27.210Z,10.49
2023-05-05T02:13:28.111Z,10.55
2023-05-05T02:14:27.335Z,10.58
2023-05-05T02:15:27.167Z,10.63
2023-05-05T02:16:27.188Z,10.81
2023-05-05T02:17:27.179Z,10.70
2023-05-05T02:18:27.133Z,10.62
2023-05-05T02:19:27.123Z,10.69
2023-05-05T02:20:27.116Z,10.66
2023-05-05T02:21:27.175Z,10.65
2023-05-05T02:22:27.109Z,10.72
2023-05-05T02:23:27.058Z,10.63
2023-05-05T02:24:27.089Z,10.57
2023-05-05T02:25:27.050Z,10.62
2023-05-05T02:26:27.090Z,10.65
2023-05-05T02:27:27.038Z,10.69
2023-05-05T02:28:27.037Z,10.70
2023-05-05T02:29:27.016Z,10.72
2023-05-05T02:30:27.030Z,10.60
2023-05-05T02:31:27.052Z,10.62
2023-05-05T02:32:27.014Z,10.60
2023-05-05T02:33:26.970Z,10.65
2023-05-05T02:34:27.609Z,10.51
2023-05-05T02:35:26.937Z,10.32
2023-05-05T02:36:26.950Z,10.38
2023-05-05T02:37:26.932Z,10.42
2023-05-05T02:38:26.937Z,10.44
2023-05-05T02:39:26.948Z,10.44
2023-05-05T02:40:26.986Z,10.44
2023-05-05T02:41:26.900Z,10.38
2023-05-05T02:42:26.919Z,10.35
2023-05-05T02:43:26.917Z,10.32
2023-05-05T02:44:26.850Z,10.36
2023-05-05T02:45:26.899Z,10.57
2023-05-05T02:46:26.849Z,10.39
2023-05-05T02:47:26.830Z,10.68
2023-05-05T02:48:26.846Z,10.63
2023-05-05T02:49:26.806Z,10.65
2023-05-05T02:50:26.870Z,10.68
2023-05-05T02:51:26.800Z,10.70
2023-05-05T02:52:26.782Z,10.69
2023-05-05T02:53:26.792Z,10.62
2023-05-05T02:54:26.793Z,10.70
2023-05-05T02:55:27.035Z,10.55
2023-05-05T02:56:26.741Z,10.58
2023-05-05T02:57:26.739Z,10.72
2023-05-05T02:58:26.689Z,10.78
2023-05-05T02:59:26.721Z,10.55
2023-05-05T03:00:26.681Z,10.44
2023-05-05T03:01:27.587Z,10.35
2023-05-05T03:02:26.706Z,10.43
2023-05-05T03:03:26.734Z,10.47
2023-05-05T03:04:26.681Z,10.36
2023-05-05T03:05:26.716Z,10.34
2023-05-05T03:06:26.684Z,10.43
2023-05-05T03:07:26.682Z,10.42
2023-05-05T03:08:26.697Z,10.36
2023-05-05T03:09:26.602Z,10.47
2023-05-05T03:10:26.534Z,10.42
2023-05-05T03:11:27.098Z,10.36
2023-05-05T03:12:26.598Z,10.38
2023-05-05T03:13:26.575Z,10.36
2023-05-05T03:14:26.532Z,10.38
2023-05-05T03:15:26.527Z,10.39
2023-05-05T03:16:26.585Z,10.32
2023-05-05T03:17:26.707Z,10.16
2023-05-05T03:18:26.494Z,10.04
2023-05-05T03:19:26.459Z,9.98
2023-05-05T03:20:26.473Z,10.07
2023-05-05T03:21:26.467Z,10.11
2023-05-05T03:22:26.447Z,10.16
2023-05-05T03:23:26.473Z,10.18
2023-05-05T03:24:26.433Z,10.17
2023-05-05T03:25:26.445Z,10.22
2023-05-05T03:26:26.418Z,10.24
2023-05-05T03:27:26.414Z,10.14
2023-05-05T03:28:26.361Z,10.07
2023-05-05T03:29:26.422Z,9.85
2023-05-05T03:30:26.346Z,9.74
2023-05-05T03:31:26.400Z,9.80
2023-05-05T03:32:26.413Z,9.83
2023-05-05T03:33:26.313Z,9.93
2023-05-05T03:34:26.310Z,10.07
2023-05-05T03:35:26.299Z,9.99
2023-05-05T03:36:27.879Z,9.91
2023-05-05T03:37:26.265Z,9.99
2023-05-05T03:38:26.269Z,10.01
2023-05-05T03:39:26.230Z,10.04
2023-05-05T03:40:36.349Z,9.93
2023-05-05T03:41:28.233Z,10.07
2023-05-05T03:42:26.216Z,10.02
2023-05-05T03:43:26.206Z,10.09
2023-05-05T03:44:26.190Z,10.17
2023-05-05T03:45:26.161Z,10.13
2023-05-05T03:46:26.162Z,10.10
2023-05-05T03:47:26.174Z,10.18
2023-05-05T03:48:26.125Z,10.25
2023-05-05T03:49:26.150Z,10.17
2023-05-05T03:50:26.127Z,9.96
2023-05-05T03:51:26.115Z,9.92
2023-05-05T03:52:26.106Z,9.96
2023-05-05T03:53:26.098Z,9.77
2023-05-05T03:54:26.054Z,9.91
2023-05-05T03:55:26.063Z,9.83
2023-05-05T03:56:26.096Z,9.88
2023-05-05T03:57:26.045Z,9.88
2023-05-05T03:58:26.129Z,9.96
2023-05-05T03:59:26.049Z,9.96
2023-05-05T04:00:26.036Z,9.95
2023-05-05T04:01:26.053Z,9.96
2023-05-05T04:02:26.131Z,9.88
2023-05-05T04:03:26.121Z,9.91
2023-05-05T04:04:26.086Z,9.95
2023-05-05T04:05:25.955Z,10.04
2023-05-05T04:06:25.966Z,10.06
2023-05-05T04:07:25.954Z,10.07
2023-05-05T04:08:25.931Z,10.11
2023-05-05T04:09:25.945Z,10.11
2023-05-05T04:10:25.919Z,10.16
2023-05-05T04:11:25.893Z,10.20
2023-05-05T04:12:25.864Z,10.13
2023-05-05T04:13:25.913Z,10.13
2023-05-05T04:14:25.889Z,10.11
2023-05-05T04:15:25.885Z,10.22
2023-05-05T04:16:25.862Z,10.28
2023-05-05T04:17:26.379Z,10.31
2023-05-05T04:18:25.814Z,10.34
2023-05-05T04:19:25.854Z,10.31
2023-05-05T04:20:25.824Z,10.24
2023-05-05T04:21:25.790Z,10.10
2023-05-05T04:22:25.828Z,10.02
2023-05-05T04:23:26.575Z,10.04
2023-05-05T04:24:26.452Z,10.07
2023-05-05T04:25:25.760Z,10.25
2023-05-05T04:26:25.770Z,10.38
2023-05-05T04:27:25.755Z,10.49
2023-05-05T04:28:25.726Z,10.58
2023-05-05T04:29:25.713Z,10.57
2023-05-05T04:30:25.711Z,10.63
2023-05-05T04:31:25.725Z,10.68
2023-05-05T04:32:26.455Z,10.76
2023-05-05T04:33:25.667Z,10.87
2023-05-05T04:34:25.649Z,10.91
2023-05-05T04:35:25.677Z,10.86
2023-05-05T04:36:25.614Z,10.91
2023-05-05T04:37:25.642Z,10.91
2023-05-05T04:38:25.656Z,10.87
2023-05-05T04:39:25.612Z,10.84
2023-05-05T04:40:25.591Z,10.84
2023-05-05T04:41:26.203Z,10.83
2023-05-05T04:42:25.566Z,10.99
2023-05-05T04:43:25.582Z,10.99
2023-05-05T04:44:25.549Z,10.93
2023-05-05T04:45:25.533Z,10.80
2023-05-05T04:46:25.557Z,10.76
2023-05-05T04:47:25.510Z,10.58
2023-05-05T04:48:26.101Z,10.42
2023-05-05T04:49:25.517Z,10.43
2023-05-05T04:50:25.558Z,10.34
2023-05-05T04:51:25.451Z,10.32
2023-05-05T04:52:25.402Z,10.22
2023-05-05T04:53:25.447Z,10.13
2023-05-05T04:54:26.434Z,10.25
2023-05-05T04:55:25.403Z,10.34
2023-05-05T04:56:25.431Z,10.18
2023-05-05T04:57:25.390Z,10.11
2023-05-05T04:58:25.658Z,10.11
2023-05-05T04:59:25.378Z,10.14
2023-05-05T05:00:25.432Z,10.04
2023-05-05T05:01:25.410Z,10.25
2023-05-05T05:02:25.421Z,10.31
2023-05-05T05:03:25.484Z,10.31
2023-05-05T05:04:25.369Z,10.28
2023-05-05T05:05:25.332Z,10.36
2023-05-05T05:06:25.352Z,10.55
2023-05-05T05:07:25.287Z,10.46
2023-05-05T05:08:25.279Z,10.65
2023-05-05T05:09:25.317Z,10.65
2023-05-05T05:10:25.283Z,10.43
2023-05-05T05:11:25.252Z,10.24
2023-05-05T05:12:25.249Z,10.26
2023-05-05T05:13:25.413Z,10.35
2023-05-05T05:14:25.222Z,10.52
2023-05-05T05:15:25.219Z,10.60
2023-05-05T05:16:25.194Z,10.70
2023-05-05T05:17:25.255Z,10.86
2023-05-05T05:18:25.158Z,11.12
2023-05-05T05:19:25.166Z,11.53
2023-05-05T05:20:25.161Z,11.84
2023-05-05T05:21:26.147Z,12.21
2023-05-05T05:22:25.160Z,12.63
2023-05-05T05:23:25.136Z,12.92
2023-05-05T05:24:25.171Z,13.53
2023-05-05T05:25:26.032Z,13.73
2023-05-05T05:26:26.106Z,14.23
2023-05-05T05:27:25.072Z,14.31
2023-05-05T05:28:25.104Z,14.12
2023-05-05T05:29:25.055Z,13.91
2023-05-05T05:30:25.055Z,13.53
2023-05-05T05:31:26.563Z,13.19
2023-05-05T05:32:25.031Z,12.99
2023-05-05T05:33:25.019Z,12.84
2023-05-05T05:34:25.571Z,12.69
2023-05-05T05:35:25.039Z,12.76
2023-05-05T05:36:25.012Z,12.46
2023-05-05T05:37:24.966Z,12.40
2023-05-05T05:38:25.023Z,12.26
2023-05-05T05:39:24.939Z,12.34
2023-05-05T05:40:25.006Z,12.55
2023-05-05T05:41:24.950Z,12.91
2023-05-05T05:42:24.946Z,13.57
2023-05-05T05:43:24.903Z,14.17
2023-05-05T05:44:25.061Z,15.16
2023-05-05T05:45:24.917Z,16.18
2023-05-05T05:46:24.922Z,17.25
2023-05-05T05:47:24.876Z,18.09
2023-05-05T05:48:24.925Z,18.68
2023-05-05T05:49:25.596Z,19.06
2023-05-05T05:50:24.819Z,19.60
2023-05-05T05:51:24.836Z,20.07
2023-05-05T05:52:24.845Z,20.50
2023-05-05T05:53:24.845Z,20.19
2023-05-05T05:54:24.804Z,19.67
2023-05-05T05:55:24.772Z,19.23
2023-05-05T05:56:24.790Z,18.82
2023-05-05T05:57:24.809Z,18.42
2023-05-05T05:58:24.734Z,19.16
2023-05-05T05:59:24.746Z,19.68
2023-05-05T06:00:24.698Z,19.82
2023-05-05T06:01:24.743Z,19.47
2023-05-05T06:02:24.736Z,19.09
2023-05-05T06:03:24.836Z,18.69
2023-05-05T06:04:24.718Z,18.39
2023-05-05T06:05:24.672Z,18.17
2023-05-05T06:06:24.661Z,18.02
2023-05-05T06:07:24.618Z,17.77
2023-05-05T06:08:25.180Z,17.70
2023-05-05T06:09:25.585Z,18.07
2023-05-05T06:10:27.585Z,18.84
2023-05-05T06:11:25.616Z,19.58
2023-05-05T06:12:24.606Z,19.78
2023-05-05T06:13:25.887Z,20.15
2023-05-05T06:14:25.161Z,20.76
2023-05-05T06:15:24.759Z,21.40
2023-05-05T06:16:25.191Z,21.79
2023-05-05T06:17:24.908Z,22.12
2023-05-05T06:18:24.945Z,22.27
2023-05-05T06:19:24.854Z,21.46
2023-05-05T06:20:24.738Z,20.78
2023-05-05T06:21:24.526Z,20.17
2023-05-05T06:22:24.669Z,19.89
2023-05-05T06:23:24.576Z,20.02
2023-05-05T06:24:24.526Z,19.97
2023-05-05T06:25:24.684Z,20.76
2023-05-05T06:26:24.692Z,21.55
2023-05-05T06:27:24.943Z,21.59
2023-05-05T06:28:31.165Z,21.56
2023-05-05T06:29:24.833Z,21.93
2023-05-05T06:30:24.655Z,22.42
2023-05-05T06:31:24.684Z,22.41
2023-05-05T06:32:27.568Z,21.83
2023-05-05T06:33:24.744Z,22.11
2023-05-05T06:34:24.523Z,22.56
2023-05-05T06:35:24.560Z,23.19
2023-05-05T06:36:24.536Z,23.82
2023-05-05T06:37:25.192Z,23.84
2023-05-05T06:38:24.816Z,23.77
2023-05-05T06:39:24.529Z,24.08
2023-05-05T06:40:24.539Z,23.99
2023-05-05T06:41:24.439Z,24.11
2023-05-05T06:42:24.404Z,23.04
2023-05-05T06:43:24.677Z,22.21
2023-05-05T06:44:24.692Z,21.43
2023-05-05T06:45:24.661Z,20.85
2023-05-05T06:46:24.672Z,20.15
2023-05-05T06:48:46.177Z,19.68
2023-05-05T06:48:48.397Z,19.42
2023-05-05T06:49:48.580Z,19.39
2023-05-05T06:52:08.243Z,19.05
2023-05-05T06:52:10.530Z,18.94
2023-05-05T06:54:31.674Z,18.94
2023-05-05T06:54:36.689Z,18.89
2023-05-05T06:56:54.576Z,18.78
2023-05-05T06:58:18.415Z,18.91
2023-05-05T06:58:25.264Z,18.79
2023-05-05T06:59:20.419Z,18.64
2023-05-05T07:00:20.155Z,18.59
2023-05-05T07:01:21.701Z,18.99
2023-05-05T07:02:20.451Z,18.87
2023-05-05T07:03:20.398Z,18.82
2023-05-05T07:04:20.102Z,19.24
2023-05-05T07:06:40.068Z,19.71
2023-05-05T07:06:42.358Z,19.50
2023-05-05T07:07:41.884Z,19.31
2023-05-05T07:08:42.097Z,19.01
2023-05-05T07:09:42.001Z,18.97
2023-05-05T07:10:42.201Z,19.27
2023-05-05T07:11:41.875Z,20.08
2023-05-05T07:12:42.217Z,20.93
2023-05-05T07:13:41.804Z,21.46
2023-05-05T07:14:41.934Z,21.67
2023-05-05T07:15:42.188Z,21.58
2023-05-05T07:16:41.944Z,22.24
2023-05-05T07:17:42.437Z,22.45
2023-05-05T07:18:46.007Z,22.67
2023-05-05T07:19:49.315Z,21.43
2023-05-05T07:20:46.465Z,20.90
2023-05-05T07:21:41.529Z,21.40
2023-05-05T07:22:41.444Z,21.98
2023-05-05T07:23:41.464Z,22.70
2023-05-05T07:24:41.489Z,23.15
2023-05-05T07:25:41.425Z,23.29
2023-05-05T07:26:41.434Z,23.03
2023-05-05T07:27:41.437Z,22.78
2023-05-05T07:28:41.406Z,22.17
2023-05-05T07:29:41.443Z,22.20
2023-05-05T07:30:41.414Z,22.21
2023-05-05T07:31:41.436Z,22.96
2023-05-05T07:32:41.469Z,23.53
2023-05-05T07:33:41.345Z,23.99
2023-05-05T07:34:41.369Z,23.89
2023-05-05T07:35:41.467Z,23.22
2023-05-05T07:36:41.344Z,23.38
2023-05-05T07:37:41.396Z,23.39
2023-05-05T07:38:41.461Z,22.78
2023-05-05T07:39:41.285Z,23.12
2023-05-05T07:40:41.274Z,23.60
2023-05-05T07:41:41.242Z,22.96
2023-05-05T07:42:41.257Z,22.88
2023-05-05T07:43:42.292Z,23.78
2023-05-05T07:44:41.973Z,22.89
2023-05-05T07:45:41.250Z,22.72
2023-05-05T07:46:42.240Z,21.33
2023-05-05T07:47:41.248Z,20.53
2023-05-05T07:48:42.164Z,20.35
2023-05-05T07:49:41.225Z,20.78
2023-05-05T07:50:41.143Z,21.00
2023-05-05T07:51:41.183Z,21.22
2023-05-05T07:52:47.920Z,21.18
2023-05-05T07:53:43.167Z,19.86
2023-05-05T07:54:41.132Z,19.40
2023-05-05T07:55:41.095Z,19.05
2023-05-05T07:56:41.093Z,18.60
2023-05-05T07:57:41.131Z,18.79
2023-05-05T07:58:41.133Z,18.50
2023-05-05T07:59:41.977Z,17.73
2023-05-05T08:00:41.064Z,17.70
2023-05-05T08:01:41.034Z,17.54
2023-05-05T08:02:41.680Z,17.43
2023-05-05T08:03:41.040Z,17.17
2023-05-05T08:04:41.044Z,17.20
2023-05-05T08:05:40.973Z,17.22
2023-05-05T08:06:40.994Z,17.27
2023-05-05T08:07:41.331Z,17.54
2023-05-05T08:08:40.958Z,17.43
2023-05-05T08:09:41.021Z,17.38
2023-05-05T08:10:40.937Z,17.58
2023-05-05T08:11:40.963Z,17.57
2023-05-05T08:12:40.971Z,17.77
2023-05-05T08:13:40.897Z,17.86
2023-05-05T08:14:40.954Z,17.99
2023-05-05T08:15:40.977Z,17.99
2023-05-05T08:16:40.873Z,18.01
2023-05-05T08:17:40.826Z,18.04
2023-05-05T08:18:40.888Z,18.05
2023-05-05T08:19:40.860Z,18.04
2023-05-05T08:20:40.830Z,18.11
2023-05-05T08:21:40.801Z,18.19
2023-05-05T08:22:40.866Z,18.10
2023-05-05T08:23:40.878Z,18.21
2023-05-05T08:24:40.781Z,18.14
2023-05-05T08:25:40.799Z,18.02
2023-05-05T08:26:40.765Z,18.11
2023-05-05T08:27:40.737Z,18.02
2023-05-05T08:28:40.770Z,18.17
2023-05-05T08:29:40.898Z,18.21
2023-05-05T08:30:40.747Z,18.26
2023-05-05T08:31:40.740Z,18.36
2023-05-05T08:32:40.708Z,18.50
2023-05-05T08:33:40.656Z,18.72
2023-05-05T08:34:40.678Z,18.82
2023-05-05T08:35:40.664Z,18.97
2023-05-05T08:36:40.682Z,19.06
2023-05-05T08:37:40.640Z,19.10
2023-05-05T08:38:40.629Z,19.34
2023-05-05T08:39:40.731Z,19.45
2023-05-05T08:40:40.599Z,19.58
2023-05-05T08:41:40.565Z,19.72
2023-05-05T08:42:40.574Z,20.76
2023-05-05T08:43:40.793Z,21.06
2023-05-05T08:44:40.537Z,21.00
2023-05-05T08:45:40.808Z,21.11
2023-05-05T08:46:40.513Z,21.00
2023-05-05T08:47:41.566Z,20.82
2023-05-05T08:48:40.573Z,20.51
2023-05-05T08:49:41.061Z,20.37
2023-05-05T08:50:40.468Z,20.08
2023-05-05T08:51:40.519Z,20.08
2023-05-05T08:52:40.627Z,20.04
2023-05-05T08:53:40.482Z,19.92
2023-05-05T08:54:41.606Z,19.79
2023-05-05T08:55:42.169Z,19.72
2023-05-05T08:56:41.676Z,19.53
2023-05-05T08:57:40.371Z,19.46
2023-05-05T08:58:40.437Z,19.47
2023-05-05T08:59:40.363Z,19.45
2023-05-05T09:00:40.391Z,19.67
2023-05-05T09:01:40.373Z,19.68
2023-05-05T09:02:40.407Z,19.71
2023-05-05T09:03:40.330Z,19.75
2023-05-05T09:04:40.313Z,19.78
2023-05-05T09:05:40.312Z,19.72
2023-05-05T09:06:40.293Z,19.78
2023-05-05T09:07:40.288Z,19.53
2023-05-05T09:08:40.314Z,19.38
2023-05-05T09:09:40.315Z,19.40
2023-05-05T09:10:40.785Z,19.46
2023-05-05T09:11:40.476Z,19.38
2023-05-05T09:12:40.363Z,19.34
2023-05-05T09:13:40.261Z,19.35
2023-05-05T09:14:40.871Z,19.34
2023-05-05T09:15:41.090Z,19.39
2023-05-05T09:16:40.277Z,19.53
2023-05-05T09:17:40.207Z,19.67
2023-05-05T09:18:40.194Z,19.70
2023-05-05T09:19:40.183Z,19.83
2023-05-05T09:20:40.160Z,19.87
2023-05-05T09:21:40.135Z,19.95
2023-05-05T09:22:40.115Z,20.02
2023-05-05T09:23:40.187Z,20.10
2023-05-05T09:24:40.233Z,20.20
2023-05-05T09:25:40.216Z,20.37
2023-05-05T09:26:40.209Z,20.69
2023-05-05T09:27:40.186Z,20.98
2023-05-05T09:28:40.674Z,21.40
2023-05-05T09:29:40.222Z,22.54
2023-05-05T09:30:40.278Z,23.53
2023-05-05T09:31:40.100Z,24.24
2023-05-05T09:32:40.160Z,24.92
2023-05-05T09:33:40.132Z,25.59
2023-05-05T09:34:43.588Z,26.17
2023-05-05T09:35:40.016Z,26.64
2023-05-05T09:36:40.016Z,27.09
2023-05-05T09:37:40.004Z,27.21
2023-05-05T09:38:39.999Z,27.31
2023-05-05T09:39:39.975Z,27.46
2023-05-05T09:40:40.041Z,27.71
2023-05-05T09:41:39.919Z,28.17
2023-05-05T09:42:39.962Z,28.72
2023-05-05T09:43:39.954Z,28.88
2023-05-05T09:44:39.985Z,28.80
2023-05-05T09:45:39.900Z,28.92
2023-05-05T09:46:39.993Z,28.77
2023-05-05T09:47:39.906Z,28.92
2023-05-05T09:48:39.878Z,29.21
2023-05-05T09:49:39.836Z,28.82
2023-05-05T09:50:39.875Z,28.83
2023-05-05T09:51:39.876Z,28.61
2023-05-05T09:52:39.869Z,28.24
2023-05-05T09:53:39.862Z,28.51
2023-05-05T09:54:39.792Z,27.91
2023-05-05T09:55:39.797Z,27.43
2023-05-05T09:56:40.188Z,27.42
2023-05-05T09:57:40.234Z,27.42
2023-05-05T09:58:40.787Z,27.48
2023-05-05T09:59:39.789Z,27.21
2023-05-05T10:00:40.033Z,27.25
2023-05-05T10:01:39.778Z,27.40
2023-05-05T10:02:40.005Z,27.93
2023-05-05T10:03:40.098Z,28.51
2023-05-05T10:04:39.982Z,28.82
2023-05-05T10:05:39.691Z,28.69
2023-05-05T10:06:39.722Z,28.45
2023-05-05T10:07:39.681Z,27.49
2023-05-05T10:08:39.640Z,25.86
2023-05-05T10:09:39.688Z,25.17
2023-05-05T10:10:39.754Z,25.05
2023-05-05T10:11:39.604Z,24.27
2023-05-05T10:12:39.607Z,23.64
2023-05-05T10:13:39.636Z,23.23
2023-05-05T10:14:39.599Z,23.50
2023-05-05T10:15:39.737Z,23.63
2023-05-05T10:16:39.694Z,24.29
2023-05-05T10:17:41.332Z,23.53
2023-05-05T10:18:39.599Z,23.37
2023-05-05T10:19:39.548Z,23.87
2023-05-05T10:20:39.587Z,24.45
2023-05-05T10:21:41.446Z,23.63
2023-05-05T10:22:39.589Z,23.01
2023-05-05T10:23:41.013Z,23.37
2023-05-05T10:24:39.509Z,23.44
2023-05-05T10:25:39.538Z,23.90
2023-05-05T10:26:39.447Z,23.57
2023-05-05T10:27:40.479Z,23.03
2023-05-05T10:28:39.456Z,22.76
2023-05-05T10:29:39.429Z,23.06
2023-05-05T10:30:39.428Z,23.22
2023-05-05T10:31:39.545Z,23.74
2023-05-05T10:33:40.470Z,24.97
2023-05-05T10:34:39.462Z,25.38
2023-05-05T10:35:39.553Z,25.24
2023-05-05T10:36:39.377Z,25.60
2023-05-05T10:37:39.350Z,26.00
2023-05-05T10:38:39.345Z,26.23
2023-05-05T10:39:39.347Z,26.46
2023-05-05T10:40:39.305Z,26.96
2023-05-05T10:41:39.317Z,26.11
2023-05-05T10:42:39.309Z,25.64
2023-05-05T10:43:39.376Z,24.82
2023-05-05T10:44:39.364Z,24.39
2023-05-05T10:45:39.395Z,25.05
2023-05-05T10:46:39.330Z,25.75
2023-05-05T10:47:39.639Z,26.27
2023-05-05T10:48:39.282Z,26.41
2023-05-05T10:49:39.276Z,26.54
2023-05-05T10:50:39.275Z,26.78
2023-05-05T10:51:40.663Z,26.44
2023-05-05T10:52:40.235Z,25.26
2023-05-05T10:53:40.138Z,24.33
2023-05-05T10:54:39.157Z,23.54
2023-05-05T10:55:39.191Z,22.91
2023-05-05T10:56:39.197Z,23.18
2023-05-05T10:57:39.311Z,23.87
2023-05-05T10:58:51.072Z,23.56
2023-05-05T10:59:41.194Z,23.82
2023-05-05T11:00:39.169Z,23.38
2023-05-05T11:01:39.236Z,22.94
2023-05-05T11:02:39.120Z,22.99
2023-05-05T11:03:39.225Z,23.84
2023-05-05T11:04:40.089Z,24.44
2023-05-05T11:05:39.075Z,25.22
2023-05-05T11:06:39.126Z,25.91
2023-05-05T11:07:39.054Z,26.50
2023-05-05T11:08:39.049Z,26.84
2023-05-05T11:09:39.102Z,26.84
2023-05-05T11:10:39.030Z,26.24
2023-05-05T11:11:39.117Z,25.45
2023-05-05T11:12:39.123Z,24.41
2023-05-05T11:13:38.980Z,24.26
2023-05-05T11:14:39.053Z,24.71
2023-05-05T11:15:39.637Z,24.34
2023-05-05T11:16:38.971Z,24.74
2023-05-05T11:17:38.978Z,25.53
2023-05-05T11:18:38.977Z,26.31
2023-05-05T11:19:38.997Z,26.68
2023-05-05T11:20:38.950Z,26.34
2023-05-05T11:21:38.957Z,26.13
2023-05-05T11:22:39.709Z,25.76
2023-05-05T11:23:39.469Z,25.82
2023-05-05T11:24:38.916Z,25.78
2023-05-05T11:25:39.416Z,25.60
2023-05-05T11:26:38.977Z,25.01
2023-05-05T11:27:38.993Z,24.79
2023-05-05T11:28:38.967Z,24.33
2023-05-05T11:29:39.299Z,23.60
2023-05-05T11:30:38.905Z,23.38
2023-05-05T11:31:38.982Z,23.63
2023-05-05T11:32:38.936Z,23.96
2023-05-05T11:33:38.890Z,23.71
2023-05-05T11:34:38.816Z,23.14
2023-05-05T11:35:39.151Z,22.69
2023-05-05T11:36:39.110Z,22.94
2023-05-05T11:37:38.876Z,23.39
2023-05-05T11:38:38.772Z,24.04
2023-05-05T11:39:38.835Z,24.45
2023-05-05T11:40:39.065Z,24.90
2023-05-05T11:41:39.025Z,25.38
2023-05-05T11:42:39.959Z,25.09
2023-05-05T11:43:39.476Z,24.79
2023-05-05T11:44:38.904Z,24.30
2023-05-05T11:45:38.739Z,24.51
2023-05-05T11:46:38.792Z,24.64
2023-05-05T11:47:39.709Z,24.23
2023-05-05T11:48:39.391Z,24.19
2023-05-05T11:49:38.701Z,24.21
2023-05-05T11:50:41.146Z,23.14
2023-05-05T11:51:38.760Z,22.93
2023-05-05T11:52:38.685Z,23.32
2023-05-05T11:53:45.404Z,23.63
2023-05-05T11:54:44.828Z,24.08
2023-05-05T11:55:41.271Z,24.05
2023-05-05T11:56:43.508Z,24.23
2023-05-05T11:57:43.501Z,24.39
2023-05-05T11:58:44.381Z,24.31
2023-05-05T11:59:47.199Z,24.36
2023-05-05T12:00:38.788Z,24.37
2023-05-05T12:01:38.726Z,24.37
2023-05-05T12:02:38.958Z,24.16
2023-05-05T12:03:38.820Z,24.05
2023-05-05T12:04:38.514Z,24.00
2023-05-05T12:05:38.533Z,23.89
2023-05-05T12:06:38.622Z,23.68
2023-05-05T12:07:38.585Z,23.34
2023-05-05T12:08:39.458Z,23.01
2023-05-05T12:09:39.087Z,22.45
2023-05-05T12:12:00.992Z,22.11
2023-05-05T12:12:02.880Z,21.66
2023-05-05T12:14:23.664Z,21.43
2023-05-05T12:15:50.069Z,21.28
2023-05-05T12:17:13.008Z,21.33
2023-05-05T12:17:14.710Z,21.34
2023-05-05T12:18:14.944Z,21.46
2023-05-05T12:22:07.226Z,21.55
2023-05-05T12:22:09.125Z,21.37
2023-05-05T12:23:28.732Z,21.19
2023-05-05T12:24:09.036Z,21.00
2023-05-05T12:25:08.848Z,20.85
2023-05-05T12:26:09.162Z,20.81
2023-05-05T12:28:29.515Z,20.76
2023-05-05T12:28:31.444Z,20.64
2023-05-05T12:32:23.969Z,20.50
2023-05-05T12:33:48.123Z,20.37
2023-05-05T12:33:49.830Z,20.35
2023-05-05T12:34:51.226Z,20.33
2023-05-05T12:37:11.071Z,20.15
2023-05-05T12:37:13.863Z,20.04
2023-05-05T12:38:13.554Z,19.89
2023-05-05T12:39:12.990Z,19.82
2023-05-05T12:40:13.451Z,19.70
2023-05-05T12:41:44.061Z,19.76
2023-05-05T12:42:41.730Z,19.71
2023-05-05T12:43:41.415Z,19.71
2023-05-05T12:44:41.470Z,19.64
2023-05-05T12:45:41.464Z,19.35
2023-05-05T12:46:41.384Z,19.43
2023-05-05T12:47:41.564Z,19.47
2023-05-05T12:48:41.425Z,19.42
2023-05-05T12:49:41.559Z,19.31
2023-05-05T12:50:42.318Z,19.12
2023-05-05T12:51:41.368Z,19.09
2023-05-05T12:52:41.451Z,18.93
2023-05-05T12:53:41.535Z,18.69
2023-05-05T12:54:41.315Z,18.60
2023-05-05T12:55:41.292Z,18.53
2023-05-05T12:56:42.127Z,18.56
2023-05-05T12:57:41.189Z,18.46
2023-05-05T12:58:41.192Z,18.46
2023-05-05T12:59:41.183Z,18.46
2023-05-05T13:00:41.155Z,18.41
2023-05-05T13:01:41.190Z,18.29
2023-05-05T13:02:41.163Z,18.35
2023-05-05T13:03:41.136Z,18.25